Time;durP1;ratioP1;P1;durP2;ratioP2;P2;SDS_P1;SDS_P2;PMS_P1;PMS_P2;Temp;Humidity;BMP_temperature;BMP_pressure;BME280_temperature;BME280_humidity;BME280_pressure;Samples;Min_cycle;Max_cycle;Signal;HPM_P1;HPM_P2
2021/06/21 00:01:40;;;;;;;9.30;7.25;;;;;;;23.86;60.47;99087.75;4360490;32;20137;-89
2021/06/21 00:04:06;;;;;;;10.10;7.47;;;;;;;23.87;60.47;99087.59;4362126;32;20134;-89
2021/06/21 00:06:31;;;;;;;7.90;7.10;;;;;;;23.94;60.48;99092.34;4359772;32;20412;-88
2021/06/21 00:08:56;;;;;;;10.40;8.18;;;;;;;23.83;60.47;99094.22;4347949;32;22353;-89
2021/06/21 00:11:22;;;;;;;12.35;8.35;;;;;;;23.80;60.47;99091.00;4360644;32;23322;-88
2021/06/21 00:13:47;;;;;;;9.70;7.62;;;;;;;23.73;60.46;99095.25;4348430;32;20170;-91
2021/06/21 00:16:13;;;;;;;12.60;7.75;;;;;;;23.82;60.48;99094.34;4361142;32;20107;-90
2021/06/21 00:18:38;;;;;;;10.93;7.32;;;;;;;23.78;60.47;99085.84;4348653;32;20270;-90
2021/06/21 00:21:04;;;;;;;9.00;7.62;;;;;;;23.76;60.47;99082.50;4348838;32;20123;-90
2021/06/21 00:23:29;;;;;;;9.50;7.97;;;;;;;23.79;60.47;99079.53;4349206;32;20463;-91
2021/06/21 00:25:55;;;;;;;8.63;7.50;;;;;;;23.79;60.47;99078.72;4348025;32;24902;-91
2021/06/21 00:28:20;;;;;;;8.80;7.70;;;;;;;23.68;60.47;99073.63;4348730;32;20185;-90
2021/06/21 00:30:46;;;;;;;10.43;7.93;;;;;;;23.74;60.46;99070.34;4348433;32;20149;-90
2021/06/21 00:33:12;;;;;;;9.27;7.75;;;;;;;23.69;60.47;99072.63;4348352;32;20476;-90
2021/06/21 00:35:37;;;;;;;8.88;7.82;;;;;;;23.73;60.46;99074.84;4348480;32;20112;-90
2021/06/21 00:38:04;;;;;;;13.85;8.40;;;;;;;23.50;60.45;99076.19;4348231;32;22520;-89
2021/06/21 00:40:30;;;;;;;9.25;7.05;;;;;;;23.52;60.46;99071.56;4348636;32;20115;-89
2021/06/21 00:42:55;;;;;;;9.60;7.68;;;;;;;23.43;60.46;99065.31;4348070;32;20141;-89
2021/06/21 00:45:21;;;;;;;9.05;7.65;;;;;;;23.46;60.45;99070.34;4360154;32;20183;-89
2021/06/21 00:47:48;;;;;;;8.00;7.20;;;;;;;23.51;60.46;99068.06;4348463;32;20468;-91
2021/06/21 00:50:13;;;;;;;9.70;7.35;;;;;;;23.49;60.45;99061.25;4351414;32;20098;-90
2021/06/21 00:52:39;;;;;;;8.57;7.72;;;;;;;23.70;60.47;99053.03;4363604;32;20129;-91
2021/06/21 00:55:05;;;;;;;11.10;7.80;;;;;;;23.36;60.45;99056.25;4348906;32;20144;-91
2021/06/21 00:57:31;;;;;;;9.20;8.25;;;;;;;23.25;60.44;99061.78;4348613;32;20417;-90
2021/06/21 00:59:57;;;;;;;7.35;6.65;;;;;;;23.36;60.45;99055.41;4348691;32;20090;-90
2021/06/21 01:02:23;;;;;;;8.82;7.82;;;;;;;23.17;60.43;99059.00;4361289;32;20124;-91
2021/06/21 01:04:49;;;;;;;11.95;7.93;;;;;;;23.14;60.43;99053.97;4348973;32;20138;-92
2021/06/21 01:07:14;;;;;;;12.93;8.02;;;;;;;23.18;60.43;99042.91;4361627;32;20125;-92
2021/06/21 01:09:40;;;;;;;10.70;7.65;;;;;;;23.14;60.43;99046.00;4348945;32;20165;-91
2021/06/21 01:12:10;;;;;;;9.60;7.70;;;;;;;23.16;60.43;99039.56;4360991;32;20130;-92
2021/06/21 01:14:48;;;;;;;11.43;7.32;;;;;;;23.16;60.43;99044.88;4336420;32;20137;-91
2021/06/21 01:17:19;;;;;;;8.70;7.25;;;;;;;23.20;60.44;99051.59;4349469;32;20126;-91
2021/06/21 01:20:06;;;;;;;8.50;7.60;;;;;;;23.23;60.44;99045.97;4336401;32;20141;-91
2021/06/21 01:23:12;;;;;;;10.73;6.90;;;;;;;23.20;60.44;99037.47;4348495;32;21033;-91
2021/06/21 01:25:45;;;;;;;10.02;8.35;;;;;;;23.18;60.43;99031.44;4361972;32;20165;-91
2021/06/21 01:29:00;;;;;;;8.10;7.28;;;;;;;23.14;60.43;99035.38;4348318;32;20111;-91
2021/06/21 01:31:44;;;;;;;11.23;8.25;;;;;;;23.13;60.44;99031.06;4337126;32;20203;-90
2021/06/21 01:34:10;;;;;;;11.80;9.07;;;;;;;23.15;60.43;99026.44;4347780;32;20106;-89
2021/06/21 01:36:35;;;;;;;9.20;8.27;;;;;;;23.05;60.43;99020.34;4347009;32;37506;-90
2021/06/21 01:39:01;;;;;;;10.63;7.65;;;;;;;22.98;60.43;99025.41;4359897;32;26239;-90
2021/06/21 01:41:30;;;;;;;9.88;7.70;;;;;;;22.98;60.43;99022.75;4360448;32;20127;-89
2021/06/21 01:43:56;;;;;;;8.70;7.47;;;;;;;23.02;60.43;99025.94;4348725;32;20108;-88
2021/06/21 01:46:24;;;;;;;10.75;7.82;;;;;;;22.91;60.42;99026.94;4367224;32;31817;-89
2021/06/21 01:48:56;;;;;;;9.88;8.60;;;;;;;22.93;60.42;99028.47;4356334;32;20107;-90
2021/06/21 01:51:22;;;;;;;10.55;7.55;;;;;;;22.98;60.43;99027.22;4351823;32;20511;-88
2021/06/21 01:53:47;;;;;;;10.02;8.20;;;;;;;22.84;60.42;99023.22;4361550;32;20110;-89
2021/06/21 01:56:20;;;;;;;12.05;8.68;;;;;;;22.76;60.41;99020.41;4348076;32;20967;-88
2021/06/21 01:58:46;;;;;;;9.82;8.73;;;;;;;22.73;60.42;99021.56;4347579;32;20154;-88
2021/06/21 02:01:17;;;;;;;10.38;8.57;;;;;;;22.86;60.42;99018.59;4347289;32;20086;-88
2021/06/21 02:03:46;;;;;;;10.75;9.50;;;;;;;22.76;60.41;99009.81;4359670;32;20075;-88
2021/06/21 02:06:12;;;;;;;11.27;8.27;;;;;;;22.76;60.41;99010.66;4347023;32;20099;-89
2021/06/21 02:08:40;;;;;;;9.13;7.68;;;;;;;22.76;60.41;99013.28;4359599;32;20170;-90
2021/06/21 02:11:05;;;;;;;9.52;8.35;;;;;;;22.68;60.41;98999.91;4347751;32;20083;-91
2021/06/21 02:13:30;;;;;;;9.80;8.13;;;;;;;22.74;60.41;99002.00;4347826;32;20113;-90
2021/06/21 02:15:56;;;;;;;8.77;7.35;;;;;;;22.88;60.42;98993.59;4346673;32;31019;-89
2021/06/21 02:18:21;;;;;;;8.63;7.12;;;;;;;22.75;60.41;98986.91;4359538;32;20492;-89
2021/06/21 02:20:47;;;;;;;9.23;7.72;;;;;;;22.99;60.43;98994.41;4346266;32;29528;-89
2021/06/21 02:23:13;;;;;;;8.85;7.90;;;;;;;22.62;60.40;98995.16;4346318;32;28001;-89
2021/06/21 02:25:38;;;;;;;9.35;7.90;;;;;;;22.51;60.40;99005.97;4346879;32;20161;-90
2021/06/21 02:28:04;;;;;;;13.05;8.77;;;;;;;22.48;60.39;98998.28;4359436;32;20441;-90
2021/06/21 02:30:29;;;;;;;10.45;8.60;;;;;;;22.41;60.39;98998.00;4348567;32;20087;-91
2021/06/21 02:32:54;;;;;;;10.05;7.78;;;;;;;22.70;60.41;98986.47;4361626;32;20103;-90
2021/06/21 02:35:20;;;;;;;10.73;7.35;;;;;;;22.59;60.41;98988.34;4361692;32;20202;-90
2021/06/21 02:37:45;;;;;;;10.20;8.23;;;;;;;22.70;60.40;98989.97;4349331;32;20350;-90
2021/06/21 02:40:12;;;;;;;12.20;7.75;;;;;;;22.62;60.40;98989.88;4361091;32;26717;-90
2021/06/21 02:42:38;;;;;;;10.40;8.25;;;;;;;22.55;60.40;98983.47;4349634;32;20680;-91
2021/06/21 02:45:04;;;;;;;9.75;8.35;;;;;;;22.32;60.39;98983.78;4361607;32;20113;-90
2021/06/21 02:47:30;;;;;;;9.32;8.38;;;;;;;22.23;60.39;98978.50;4361447;32;20103;-89
2021/06/21 02:49:55;;;;;;;11.35;8.18;;;;;;;22.28;60.39;98982.41;4361175;32;20487;-89
2021/06/21 02:52:45;;;;;;;9.55;7.93;;;;;;;22.27;60.39;98971.94;4360779;32;25465;-89
2021/06/21 02:55:36;;;;;;;13.93;8.70;;;;;;;22.28;60.39;98982.41;4361737;32;20099;-89
2021/06/21 02:58:24;;;;;;;10.38;8.20;;;;;;;22.32;60.39;98982.97;4361390;32;20129;-88
2021/06/21 03:00:50;;;;;;;8.80;7.70;;;;;;;22.25;60.38;98979.22;4345207;32;20095;-89
2021/06/21 03:03:16;;;;;;;11.07;8.15;;;;;;;22.23;60.38;98979.31;4336628;32;20115;-89
2021/06/21 03:05:41;;;;;;;8.65;7.75;;;;;;;22.23;60.38;98984.63;4360934;32;24325;-90
2021/06/21 03:08:06;;;;;;;8.45;7.55;;;;;;;22.29;60.39;98983.25;4348976;32;20170;-90
2021/06/21 03:10:32;;;;;;;11.25;8.35;;;;;;;22.30;60.39;98985.75;4348291;32;20143;-89
2021/06/21 03:12:57;;;;;;;7.97;7.18;;;;;;;22.27;60.39;98977.25;4348577;32;20131;-89
2021/06/21 03:15:24;;;;;;;9.98;7.80;;;;;;;22.37;60.39;98984.19;4361392;32;20107;-91
2021/06/21 03:17:49;;;;;;;8.50;7.62;;;;;;;22.63;60.40;98980.94;4348829;32;20099;-89
2021/06/21 03:20:16;;;;;;;9.38;7.68;;;;;;;22.50;60.40;98980.41;4361701;32;20514;-89
2021/06/21 03:22:44;;;;;;;8.63;7.60;;;;;;;22.43;60.39;98987.25;4348955;32;20115;-90
2021/06/21 03:25:10;;;;;;;9.38;7.60;;;;;;;22.39;60.39;98989.38;4349161;32;20115;-91
2021/06/21 03:27:35;;;;;;;7.93;7.20;;;;;;;22.62;60.40;98981.91;4349382;32;20107;-90
2021/06/21 03:30:03;;;;;;;10.60;7.40;;;;;;;22.86;60.41;98989.41;4361593;32;20117;-89
2021/06/21 03:32:31;;;;;;;10.10;7.18;;;;;;;22.72;60.42;98990.69;4360957;32;20118;-88
2021/06/21 03:34:58;;;;;;;11.45;8.55;;;;;;;22.65;60.39;98994.87;4361110;32;20139;-89
2021/06/21 03:37:23;;;;;;;11.73;7.72;;;;;;;22.69;60.41;98993.59;4348729;32;20400;-89
2021/06/21 03:39:49;;;;;;;11.12;7.62;;;;;;;22.72;60.40;98998.66;4348401;32;20110;-89
2021/06/21 03:42:14;;;;;;;10.07;7.10;;;;;;;22.76;60.41;98997.38;4334655;32;30975;-89
2021/06/21 03:44:40;;;;;;;10.20;7.57;;;;;;;22.82;60.41;98999.47;4360961;32;20155;-89
2021/06/21 03:47:06;;;;;;;11.10;7.30;;;;;;;22.89;60.42;99007.69;4348417;32;20123;-89
2021/06/21 03:49:32;;;;;;;11.02;6.82;;;;;;;23.09;60.42;99000.47;4348593;32;20464;-89
2021/06/21 03:51:57;;;;;;;9.77;7.00;;;;;;;23.03;60.42;99001.09;4360943;32;20146;-88
2021/06/21 03:54:23;;;;;;;11.48;6.87;;;;;;;23.07;60.43;98997.16;4348300;32;20482;-88
2021/06/21 03:56:48;;;;;;;7.53;6.40;;;;;;;23.22;60.43;98996.53;4360584;32;20182;-87
2021/06/21 03:59:14;;;;;;;11.55;6.62;;;;;;;23.47;60.44;98999.47;4348080;32;21012;-87
2021/06/21 04:01:39;;;;;;;10.13;6.70;;;;;;;23.25;60.43;98995.37;4348716;32;20162;-90
2021/06/21 04:04:05;;;;;;;9.10;6.37;;;;;;;23.30;60.44;98997.59;4349361;32;20540;-89
2021/06/21 04:06:30;;;;;;;8.48;6.05;;;;;;;23.53;60.45;98997.03;4348791;32;20190;-89
2021/06/21 04:08:56;;;;;;;20.08;13.88;;;;;;;23.56;60.45;98996.75;4360608;32;20211;-90
2021/06/21 04:11:23;;;;;;;29.35;20.23;;;;;;;23.66;60.46;98996.72;4348336;32;20130;-91
2021/06/21 04:13:48;;;;;;;17.50;11.68;;;;;;;23.60;60.46;99004.44;4361559;32;20146;-90
2021/06/21 04:16:13;;;;;;;9.23;7.97;;;;;;;23.54;60.45;99006.66;4336771;32;20471;-87
2021/06/21 04:18:39;;;;;;;9.07;6.72;;;;;;;23.66;60.45;99001.16;4352053;32;32880;-93
2021/06/21 04:24:51;;;;;;;7.03;6.32;;;;;;;23.86;60.46;99005.34;4723779;27;20095;-96
2021/06/21 04:55:45;;;;;;;9.02;6.82;;;;;;;25.33;60.54;98993.94;4791885;27;20436;-96
2021/06/21 04:58:11;;;;;;;13.15;7.15;;;;;;;25.53;60.55;98992.63;4367259;32;20067;-96
2021/06/21 05:00:39;;;;;;;7.80;6.37;;;;;;;25.62;60.55;98988.19;4375087;32;20153;-96
2021/06/21 05:03:06;;;;;;;8.45;6.18;;;;;;;25.76;60.56;98997.38;4374302;32;20055;-96
2021/06/21 05:26:15;;;;;;;9.60;6.93;;;;;;;26.84;60.62;98999.72;5129700;27;20111;-96
2021/06/21 05:29:44;;;;;;;11.10;7.55;;;;;;;27.11;60.63;98995.81;4394513;27;20075;-96
2021/06/21 05:32:30;;;;;;;9.20;7.10;;;;;;;27.19;60.63;98990.44;4358537;33;20103;-96
2021/06/21 05:37:31;;;;;;;13.62;8.48;;;;;;;27.37;60.65;98990.19;4836807;27;20087;-96
2021/06/21 05:40:26;;;;;;;11.00;7.85;;;;;;;27.40;60.65;98989.00;4549086;27;20156;-96
2021/06/21 06:05:09;;;;;;;13.82;9.30;;;;;;;28.40;60.70;98998.72;4625064;27;20131;-95
2021/06/21 06:07:35;;;;;;;14.18;8.98;;;;;;;28.49;60.71;99006.69;4335259;33;20087;-95
2021/06/21 06:10:00;;;;;;;13.70;9.18;;;;;;;28.64;60.71;99004.88;4335230;33;20180;-95
2021/06/21 06:12:26;;;;;;;11.52;9.30;;;;;;;28.76;60.71;99014.09;4322945;33;20198;-96
2021/06/21 06:14:51;;;;;;;12.35;8.82;;;;;;;28.91;60.72;99006.94;4323102;33;20119;-96
2021/06/21 06:17:17;;;;;;;14.77;8.52;;;;;;;29.06;60.73;99012.28;4336155;33;20111;-95
2021/06/21 06:19:42;;;;;;;13.02;7.87;;;;;;;29.03;60.73;99013.50;4323445;33;21650;-96
2021/06/21 06:22:08;;;;;;;11.75;7.78;;;;;;;29.27;60.74;99012.38;4325080;33;20155;-96
2021/06/21 06:24:34;;;;;;;13.38;6.80;;;;;;;29.22;60.74;99000.56;4341993;33;20083;-95
2021/06/21 06:27:01;;;;;;;11.02;6.18;;;;;;;29.36;60.75;99006.94;4327315;33;20107;-96
2021/06/21 06:29:36;;;;;;;8.88;5.57;;;;;;;29.59;60.76;99003.13;4351077;33;20108;-96
2021/06/21 06:32:02;;;;;;;8.82;5.30;;;;;;;29.58;60.76;99004.13;4329358;32;20188;-94
2021/06/21 06:34:27;;;;;;;6.95;4.95;;;;;;;29.70;60.77;99006.31;4367064;32;20099;-96
2021/06/21 06:36:53;;;;;;;7.32;5.15;;;;;;;29.77;60.77;99004.53;4353569;32;20091;-96
2021/06/21 06:39:19;;;;;;;6.45;4.50;;;;;;;30.06;60.79;99007.16;4353028;32;20133;-95
2021/06/21 06:41:45;;;;;;;4.82;4.32;;;;;;;30.23;60.79;99008.53;4351868;32;20133;-95
2021/06/21 06:44:10;;;;;;;8.77;4.72;;;;;;;30.25;60.79;99011.84;4351556;32;20166;-94
2021/06/21 06:46:35;;;;;;;5.30;3.97;;;;;;;30.37;60.79;99005.97;4351964;32;20079;-94
2021/06/21 06:49:01;;;;;;;8.15;4.60;;;;;;;30.74;60.82;99012.88;4351869;32;20174;-93
2021/06/21 06:51:39;;;;;;;6.90;4.32;;;;;;;30.97;60.83;98996.47;4351592;32;20404;-95
2021/06/21 06:54:28;;;;;;;9.70;4.10;;;;;;;31.35;60.85;98997.75;4351044;32;20075;-94
2021/06/21 06:57:04;;;;;;;5.82;4.30;;;;;;;31.36;60.85;98994.03;4362817;32;20708;-93
2021/06/21 06:59:32;;;;;;;6.22;4.03;;;;;;;31.63;60.86;98994.09;4350993;32;20735;-95
2021/06/21 07:01:59;;;;;;;8.18;4.57;;;;;;;31.71;60.86;98993.94;4350639;32;20107;-96
2021/06/21 07:04:24;;;;;;;7.22;4.37;;;;;;;31.80;60.88;98995.44;4350886;32;20117;-96
2021/06/21 07:06:50;;;;;;;13.48;4.57;;;;;;;31.80;60.88;98992.75;4350119;32;20115;-92
2021/06/21 07:09:15;;;;;;;6.45;4.30;;;;;;;31.74;60.87;98991.69;4336750;32;20155;-91
2021/06/21 07:11:40;;;;;;;10.95;4.90;;;;;;;31.82;60.88;98996.06;4349045;32;20135;-89
2021/06/21 07:14:06;;;;;;;9.23;4.93;;;;;;;31.79;60.86;98992.94;4361764;32;20075;-91
2021/06/21 07:16:32;;;;;;;5.45;4.30;;;;;;;31.93;60.88;98998.12;4348708;32;20114;-91
2021/06/21 07:18:58;;;;;;;8.55;4.30;;;;;;;32.08;60.89;98994.44;4349074;32;20107;-91
2021/06/21 07:21:23;;;;;;;7.68;4.60;;;;;;;32.15;60.89;98990.69;4348627;32;20135;-89
2021/06/21 07:23:48;;;;;;;5.32;4.50;;;;;;;32.45;60.91;98990.34;4349005;32;20589;-91
2021/06/21 07:26:14;;;;;;;5.20;4.50;;;;;;;32.46;60.91;98995.53;4361168;32;23840;-90
2021/06/21 07:28:39;;;;;;;7.95;4.90;;;;;;;32.55;60.91;98988.88;4361127;32;20206;-91
2021/06/21 07:31:05;;;;;;;6.90;4.62;;;;;;;32.45;60.91;98985.78;4348465;32;20151;-89
2021/06/21 07:33:33;;;;;;;6.12;4.70;;;;;;;32.62;60.92;98981.59;4349034;32;20141;-91
2021/06/21 07:35:58;;;;;;;10.57;5.00;;;;;;;32.50;60.91;98985.97;4349721;32;20079;-92
2021/06/21 07:38:24;;;;;;;5.97;4.53;;;;;;;32.55;60.91;98978.09;4348969;32;20127;-91
2021/06/21 07:40:49;;;;;;;13.13;5.20;;;;;;;32.45;60.92;98982.25;4348698;32;20119;-89
2021/06/21 07:43:15;;;;;;;8.13;5.20;;;;;;;32.61;60.92;98988.03;4348908;32;20174;-92
2021/06/21 07:45:42;;;;;;;6.97;5.03;;;;;;;32.62;60.92;98986.16;4360712;32;20497;-91
2021/06/21 07:48:07;;;;;;;7.07;4.82;;;;;;;32.78;60.93;98982.22;4348493;32;20130;-90
2021/06/21 07:50:33;;;;;;;10.57;5.30;;;;;;;32.74;60.92;98979.09;4360935;32;20142;-90
2021/06/21 07:53:01;;;;;;;9.25;5.37;;;;;;;32.67;60.91;98976.44;4361266;32;20095;-90
2021/06/21 07:55:28;;;;;;;10.18;5.00;;;;;;;32.72;60.92;98977.66;4361296;32;20083;-91
2021/06/21 07:57:56;;;;;;;7.82;5.03;;;;;;;33.04;60.94;98978.63;4361224;32;20220;-92
2021/06/21 08:00:24;;;;;;;8.18;5.30;;;;;;;32.99;60.93;98973.06;4348526;32;21319;-92
2021/06/21 08:02:53;;;;;;;8.90;4.60;;;;;;;33.15;60.95;98973.44;4349161;32;20569;-91
2021/06/21 08:05:19;;;;;;;6.93;5.15;;;;;;;33.29;60.96;98968.78;4348804;32;20083;-91
2021/06/21 08:07:45;;;;;;;12.57;6.72;;;;;;;33.43;60.96;98969.59;4349291;32;20107;-91
2021/06/21 08:10:11;;;;;;;7.47;4.95;;;;;;;33.53;60.96;98968.06;4362260;32;20095;-91
2021/06/21 08:12:36;;;;;;;8.40;5.55;;;;;;;33.60;60.96;98973.47;4348708;32;20087;-91
2021/06/21 08:15:03;;;;;;;10.05;5.62;;;;;;;33.85;60.98;98965.44;4361450;32;20087;-91
2021/06/21 08:17:28;;;;;;;9.68;5.78;;;;;;;34.08;60.99;98964.87;4349294;32;20107;-92
2021/06/21 08:19:54;;;;;;;9.52;5.40;;;;;;;33.95;60.98;98959.53;4348404;32;20114;-91
2021/06/21 08:22:22;;;;;;;8.18;5.28;;;;;;;34.25;61.00;98952.44;4361266;32;20499;-91
2021/06/21 08:24:50;;;;;;;9.07;5.05;;;;;;;34.08;60.99;98959.47;4336550;32;20095;-92
2021/06/21 08:27:16;;;;;;;7.30;5.07;;;;;;;34.27;60.99;98950.34;4348992;32;20106;-93
2021/06/21 08:29:42;;;;;;;7.95;4.35;;;;;;;34.50;61.01;98948.91;4350323;32;20350;-93
2021/06/21 08:32:07;;;;;;;11.02;4.65;;;;;;;34.62;61.02;98949.84;4349475;32;20517;-92
2021/06/21 08:34:33;;;;;;;6.85;4.82;;;;;;;34.79;61.03;98948.22;4349343;32;20094;-92
2021/06/21 08:36:58;;;;;;;4.80;4.30;;;;;;;35.02;61.04;98945.69;4362274;32;20110;-94
2021/06/21 08:39:24;;;;;;;7.70;4.37;;;;;;;35.21;61.05;98937.53;4364119;32;23597;-93
2021/06/21 08:41:49;;;;;;;11.82;4.68;;;;;;;35.56;61.06;98937.72;4363992;32;20146;-92
2021/06/21 08:44:14;;;;;;;7.03;4.85;;;;;;;35.30;61.05;98941.59;4364445;32;20096;-94
2021/06/21 08:46:41;;;;;;;7.75;5.07;;;;;;;35.23;61.04;98940.84;4359030;32;22045;-92
2021/06/21 08:49:07;;;;;;;8.98;4.15;;;;;;;35.07;61.04;98945.84;4352075;32;20166;-92
2021/06/21 08:51:35;;;;;;;9.40;4.20;;;;;;;35.19;61.05;98937.75;4351869;32;20108;-93
2021/06/21 08:54:01;;;;;;;8.63;4.10;;;;;;;35.12;61.04;98936.22;4350959;32;20095;-92
2021/06/21 08:56:26;;;;;;;6.57;4.30;;;;;;;35.40;61.05;98935.66;4349768;32;20123;-92
2021/06/21 08:58:52;;;;;;;5.65;3.70;;;;;;;35.77;61.08;98934.50;4349326;32;20390;-94
2021/06/21 09:01:17;;;;;;;6.18;3.85;;;;;;;35.88;61.08;98930.19;4349742;32;20136;-93
2021/06/21 09:03:42;;;;;;;5.72;4.05;;;;;;;36.11;61.09;98930.22;4348503;32;21591;-93
2021/06/21 09:06:17;;;;;;;9.07;4.12;;;;;;;36.34;61.10;98931.31;4349087;32;20127;-92
2021/06/21 09:08:53;;;;;;;7.45;3.95;;;;;;;36.58;61.11;98932.97;4350372;32;20098;-92
2021/06/21 09:11:19;;;;;;;5.28;4.03;;;;;;;36.59;61.11;98929.19;4349946;32;20094;-94
2021/06/21 09:13:44;;;;;;;10.60;3.85;;;;;;;36.57;61.11;98926.72;4350192;32;20091;-94
2021/06/21 09:16:09;;;;;;;5.40;3.75;;;;;;;36.70;61.11;98920.22;4349477;32;20137;-93
2021/06/21 09:18:38;;;;;;;8.30;4.60;;;;;;;36.92;61.13;98911.50;4363253;32;20655;-94
2021/06/21 09:21:27;;;;;;;7.47;4.35;;;;;;;37.02;61.13;98923.38;4350598;32;20086;-93
2021/06/21 09:23:54;;;;;;;8.23;3.95;;;;;;;36.66;61.12;98929.88;4349873;32;20105;-94
2021/06/21 09:26:25;;;;;;;4.82;3.72;;;;;;;36.79;61.13;98926.97;4349898;32;20128;-94
2021/06/21 09:28:51;;;;;;;6.20;4.00;;;;;;;36.88;61.14;98921.97;4337270;32;20119;-93
2021/06/21 09:31:17;;;;;;;6.72;3.95;;;;;;;36.94;61.13;98912.09;4361805;32;20178;-94
2021/06/21 09:33:44;;;;;;;4.85;4.45;;;;;;;36.58;61.12;98914.00;4348661;32;20158;-92
2021/06/21 09:36:09;;;;;;;7.60;4.70;;;;;;;36.11;61.09;98911.25;4364288;32;20444;-93
2021/06/21 09:38:34;;;;;;;8.60;4.03;;;;;;;36.33;61.10;98922.38;4349471;32;20103;-93
2021/06/21 09:41:00;;;;;;;7.65;4.32;;;;;;;36.52;61.11;98913.06;4363380;32;20524;-93
2021/06/21 09:43:32;;;;;;;5.10;4.03;;;;;;;36.58;61.11;98916.69;4350702;32;20157;-92
2021/06/21 09:46:20;;;;;;;7.30;4.37;;;;;;;36.82;61.13;98920.22;4338557;32;20141;-93
2021/06/21 09:48:50;;;;;;;7.85;4.00;;;;;;;37.14;61.15;98909.75;4351682;32;20770;-95
2021/06/21 09:51:32;;;;;;;6.85;4.00;;;;;;;37.29;61.15;98910.09;4338988;32;20109;-92
2021/06/21 09:54:20;;;;;;;5.90;4.10;;;;;;;37.45;61.16;98905.78;4363525;32;20153;-94
2021/06/21 09:56:50;;;;;;;7.85;4.47;;;;;;;37.71;61.17;98899.75;4351285;32;20107;-96
2021/06/21 09:59:28;;;;;;;7.03;4.40;;;;;;;37.61;61.17;98904.13;4363868;32;20133;-95
2021/06/21 10:02:03;;;;;;;6.05;3.90;;;;;;;37.51;61.17;98902.06;4351091;32;20094;-94
2021/06/21 10:04:29;;;;;;;7.78;4.40;;;;;;;37.63;61.17;98899.31;4364637;32;20101;-94
2021/06/21 10:06:54;;;;;;;7.35;4.37;;;;;;;37.93;61.17;98899.84;4350890;32;20106;-95
2021/06/21 10:09:19;;;;;;;4.70;3.87;;;;;;;38.01;61.19;98895.87;4350368;32;20350;-92
2021/06/21 10:11:46;;;;;;;6.30;4.12;;;;;;;37.88;61.18;98898.94;4362840;32;20111;-94
2021/06/21 10:14:13;;;;;;;4.55;3.95;;;;;;;37.90;61.18;98896.81;4351481;32;20440;-93
2021/06/21 10:16:38;;;;;;;5.78;4.22;;;;;;;37.84;61.17;98895.87;4351327;32;20166;-93
2021/06/21 10:19:04;;;;;;;6.65;4.37;;;;;;;37.77;61.18;98897.94;4339205;32;20099;-93
2021/06/21 10:21:30;;;;;;;4.82;4.43;;;;;;;37.88;61.18;98891.62;4351809;32;20111;-93
2021/06/21 10:23:56;;;;;;;9.00;4.15;;;;;;;37.91;61.18;98887.59;4352116;32;20098;-95
2021/06/21 10:26:21;;;;;;;5.70;4.40;;;;;;;38.13;61.19;98891.19;4338613;32;20543;-94
2021/06/21 10:28:48;;;;;;;9.02;4.10;;;;;;;38.15;61.19;98891.78;4350234;32;20107;-94
2021/06/21 10:31:13;;;;;;;7.07;4.82;;;;;;;38.27;61.20;98889.78;4350728;32;20835;-93
2021/06/21 10:33:38;;;;;;;6.22;4.47;;;;;;;38.22;61.20;98887.00;4350282;32;20111;-93
2021/06/21 10:36:06;;;;;;;8.85;5.03;;;;;;;38.14;61.19;98875.72;4350064;32;20106;-94
2021/06/21 10:38:31;;;;;;;5.43;4.30;;;;;;;38.51;61.21;98879.53;4352193;32;20177;-94
2021/06/21 10:41:01;;;;;;;5.05;4.12;;;;;;;38.74;61.22;98883.09;4351175;32;20441;-94
2021/06/21 10:43:45;;;;;;;8.32;5.25;;;;;;;38.93;61.23;98877.09;4351489;32;20085;-94
2021/06/21 10:46:19;;;;;;;7.28;4.97;;;;;;;38.93;61.23;98881.72;4350771;32;20142;-95
2021/06/21 10:48:57;;;;;;;5.12;4.62;;;;;;;39.22;61.24;98880.44;4350766;32;20087;-93
2021/06/21 10:51:37;;;;;;;5.97;4.25;;;;;;;39.25;61.24;98877.19;4351888;32;20083;-92
2021/06/21 10:54:04;;;;;;;5.43;4.60;;;;;;;38.92;61.23;98875.44;4363965;32;20080;-94
2021/06/21 10:56:45;;;;;;;5.65;4.75;;;;;;;38.98;61.23;98884.50;4350597;32;20111;-94
2021/06/21 10:59:14;;;;;;;5.15;4.65;;;;;;;39.27;61.24;98880.47;4337889;32;20129;-92
2021/06/21 11:02:10;;;;;;;6.43;4.87;;;;;;;39.65;61.25;98859.63;4350537;32;20109;-94
2021/06/21 11:04:35;;;;;;;7.03;4.70;;;;;;;39.96;61.27;98877.06;4349956;32;20095;-95
2021/06/21 11:07:18;;;;;;;5.90;4.37;;;;;;;40.25;61.29;98863.94;4364042;32;20118;-94
2021/06/21 11:09:45;;;;;;;6.10;4.18;;;;;;;40.48;61.30;98866.28;4350271;32;20603;-94
2021/06/21 11:12:22;;;;;;;5.82;4.80;;;;;;;40.72;61.31;98850.28;4350780;32;20091;-94
2021/06/21 11:15:03;;;;;;;7.55;4.45;;;;;;;40.96;61.33;98849.84;4351025;32;20121;-94
2021/06/21 11:17:30;;;;;;;6.62;4.70;;;;;;;40.99;61.32;98844.66;4364383;32;21250;-95
2021/06/21 11:19:56;;;;;;;6.03;4.60;;;;;;;41.08;61.32;98845.75;4351087;32;20111;-94
2021/06/21 11:22:41;;;;;;;6.62;4.28;;;;;;;41.15;61.33;98842.75;4350195;32;20144;-94
2021/06/21 11:25:22;;;;;;;6.05;4.47;;;;;;;40.92;61.32;98859.63;4338813;32;20161;-95
2021/06/21 11:27:48;;;;;;;5.75;4.47;;;;;;;40.78;61.31;98849.19;4338590;32;20098;-94
2021/06/21 11:30:34;;;;;;;6.32;4.53;;;;;;;40.59;61.30;98844.47;4350695;32;20149;-96
2021/06/21 11:33:05;;;;;;;7.68;4.47;;;;;;;40.42;61.30;98837.31;4351114;32;20099;-95
2021/06/21 11:35:45;;;;;;;6.85;4.60;;;;;;;40.34;61.30;98842.41;4351297;32;20146;-93
2021/06/21 11:38:27;;;;;;;6.55;4.30;;;;;;;40.33;61.30;98836.16;4364031;32;20175;-94
2021/06/21 11:41:28;;;;;;;5.03;4.62;;;;;;;40.01;61.28;98832.69;4350463;32;20115;-94
2021/06/21 11:43:54;;;;;;;6.47;4.90;;;;;;;39.89;61.28;98830.13;4363502;32;20440;-94
2021/06/21 11:46:46;;;;;;;6.78;4.53;;;;;;;39.69;61.26;98832.69;4350870;32;20098;-95
2021/06/21 11:49:16;;;;;;;6.55;4.35;;;;;;;39.77;61.27;98833.06;4364027;32;20103;-95
2021/06/21 11:51:53;;;;;;;5.68;4.37;;;;;;;39.79;61.26;98814.53;4350978;32;20207;-94
2021/06/21 11:54:19;;;;;;;9.88;4.68;;;;;;;39.75;61.27;98824.31;4351368;32;20094;-94
2021/06/21 11:56:52;;;;;;;8.18;4.40;;;;;;;39.23;61.25;98822.19;4350642;32;20133;-92
2021/06/21 11:59:28;;;;;;;8.57;4.97;;;;;;;39.10;61.24;98811.72;4350270;32;20099;-94
2021/06/21 12:02:11;;;;;;;6.47;4.47;;;;;;;38.83;61.23;98816.31;4350159;32;20114;-93
2021/06/21 12:04:36;;;;;;;5.50;4.68;;;;;;;38.96;61.23;98821.34;4350679;32;20098;-94
2021/06/21 12:07:02;;;;;;;5.75;4.55;;;;;;;38.93;61.24;98809.06;4363023;32;20095;-95
2021/06/21 12:09:28;;;;;;;8.18;4.78;;;;;;;39.15;61.25;98809.06;4342592;33;176217;-94
2021/06/21 12:11:54;;;;;;;13.18;4.90;;;;;;;39.36;61.25;98809.25;4350108;32;20083;-94
2021/06/21 12:14:28;;;;;;;7.87;4.57;;;;;;;39.27;61.25;98796.09;4349925;32;20101;-94
2021/06/21 12:17:04;;;;;;;7.07;4.80;;;;;;;39.05;61.24;98792.59;4337621;32;20464;-93
2021/06/21 12:19:30;;;;;;;6.25;5.00;;;;;;;39.09;61.24;98793.75;4338860;32;20111;-95
2021/06/21 12:21:55;;;;;;;6.82;4.57;;;;;;;39.12;61.24;98801.41;4351015;32;20504;-94
2021/06/21 12:24:21;;;;;;;6.60;4.62;;;;;;;39.06;61.25;98793.44;4350690;32;20154;-95
2021/06/21 12:26:47;;;;;;;5.30;4.50;;;;;;;39.11;61.24;98788.87;4352320;32;20091;-95
2021/06/21 12:29:19;;;;;;;6.78;5.12;;;;;;;39.24;61.25;98783.00;4362324;32;20079;-96
2021/06/21 12:31:59;;;;;;;9.50;5.35;;;;;;;39.29;61.24;98774.06;4364636;32;20480;-95
2021/06/21 12:34:47;;;;;;;6.22;4.60;;;;;;;39.19;61.24;98780.22;4365494;32;20054;-93
2021/06/21 12:37:20;;;;;;;12.93;4.55;;;;;;;39.26;61.24;98767.22;4356253;32;20110;-94
2021/06/21 12:39:47;;;;;;;6.70;4.78;;;;;;;39.18;61.24;98773.16;4368745;32;20098;-94
2021/06/21 12:42:15;;;;;;;10.50;5.18;;;;;;;39.24;61.25;98774.00;4352691;32;20115;-94
2021/06/21 12:44:42;;;;;;;5.60;4.47;;;;;;;39.29;61.24;98782.25;4350945;32;20459;-95
2021/06/21 12:47:21;;;;;;;8.02;4.70;;;;;;;39.38;61.25;98782.56;4350723;32;20226;-94
2021/06/21 12:49:48;;;;;;;10.10;4.80;;;;;;;39.18;61.25;98780.50;4350362;32;20118;-94
2021/06/21 12:52:13;;;;;;;7.25;4.65;;;;;;;39.60;61.26;98769.72;4350521;32;20120;-95
2021/06/21 12:54:39;;;;;;;10.13;4.97;;;;;;;39.77;61.27;98775.00;4350125;32;20117;-94
2021/06/21 12:57:04;;;;;;;5.90;4.78;;;;;;;39.85;61.27;98775.31;4350991;32;20198;-95
2021/06/21 12:59:34;;;;;;;6.75;4.82;;;;;;;39.95;61.28;98774.59;4363402;32;20098;-95